sensor_id;sensor_type;location;lat;lon;timestamp;temperature;humidity
71039;SHT30;58692;43.212;27.908;2023-09-12T00:01:04;19.24;72.69
71039;SHT30;58692;43.212;27.908;2023-09-12T00:03:32;19.24;72.72
71039;SHT30;58692;43.212;27.908;2023-09-12T00:05:58;19.18;72.78
71039;SHT30;58692;43.212;27.908;2023-09-12T00:08:24;19.04;73.13
71039;SHT30;58692;43.212;27.908;2023-09-12T00:11:07;19.08;72.99
71039;SHT30;58692;43.212;27.908;2023-09-12T00:13:35;18.92;73.36
71039;SHT30;58692;43.212;27.908;2023-09-12T00:16:01;18.90;73.39
71039;SHT30;58692;43.212;27.908;2023-09-12T00:18:27;18.56;74.06
71039;SHT30;58692;43.212;27.908;2023-09-12T00:20:53;18.45;74.60
71039;SHT30;58692;43.212;27.908;2023-09-12T00:23:20;18.56;75.02
71039;SHT30;58692;43.212;27.908;2023-09-12T00:25:46;18.74;75.00
71039;SHT30;58692;43.212;27.908;2023-09-12T00:28:12;18.76;75.40
71039;SHT30;58692;43.212;27.908;2023-09-12T00:30:37;18.83;75.54
71039;SHT30;58692;43.212;27.908;2023-09-12T00:33:03;18.86;75.40
71039;SHT30;58692;43.212;27.908;2023-09-12T00:35:29;18.89;75.07
71039;SHT30;58692;43.212;27.908;2023-09-12T00:37:54;18.92;74.83
71039;SHT30;58692;43.212;27.908;2023-09-12T00:40:20;18.99;74.59
71039;SHT30;58692;43.212;27.908;2023-09-12T00:42:45;19.04;74.23
71039;SHT30;58692;43.212;27.908;2023-09-12T00:45:11;19.10;73.99
71039;SHT30;58692;43.212;27.908;2023-09-12T00:47:36;19.07;73.94
71039;SHT30;58692;43.212;27.908;2023-09-12T00:50:04;19.10;73.77
71039;SHT30;58692;43.212;27.908;2023-09-12T00:52:31;19.14;73.66
71039;SHT30;58692;43.212;27.908;2023-09-12T00:54:58;19.10;73.69
71039;SHT30;58692;43.212;27.908;2023-09-12T00:57:25;19.04;73.97
71039;SHT30;58692;43.212;27.908;2023-09-12T00:59:51;18.83;74.11
71039;SHT30;58692;43.212;27.908;2023-09-12T01:02:18;18.79;74.15
71039;SHT30;58692;43.212;27.908;2023-09-12T01:04:44;18.52;74.85
71039;SHT30;58692;43.212;27.908;2023-09-12T01:07:10;18.45;75.19
71039;SHT30;58692;43.212;27.908;2023-09-12T01:09:35;18.33;75.30
71039;SHT30;58692;43.212;27.908;2023-09-12T01:12:01;18.36;75.23
71039;SHT30;58692;43.212;27.908;2023-09-12T01:14:28;18.22;75.90
71039;SHT30;58692;43.212;27.908;2023-09-12T01:16:54;18.19;75.85
71039;SHT30;58692;43.212;27.908;2023-09-12T01:19:20;18.09;76.17
71039;SHT30;58692;43.212;27.908;2023-09-12T01:26:49;18.26;75.59
71039;SHT30;58692;43.212;27.908;2023-09-12T01:29:19;18.33;75.17
71039;SHT30;58692;43.212;27.908;2023-09-12T01:31:47;18.38;74.98
71039;SHT30;58692;43.212;27.908;2023-09-12T01:34:14;18.35;75.11
71039;SHT30;58692;43.212;27.908;2023-09-12T01:36:40;18.19;75.90
71039;SHT30;58692;43.212;27.908;2023-09-12T01:39:06;18.11;76.92
71039;SHT30;58692;43.212;27.908;2023-09-12T01:41:35;18.22;76.67
71039;SHT30;58692;43.212;27.908;2023-09-12T01:44:02;18.22;76.65
71039;SHT30;58692;43.212;27.908;2023-09-12T01:46:31;18.19;76.37
71039;SHT30;58692;43.212;27.908;2023-09-12T01:48:59;18.16;76.10
71039;SHT30;58692;43.212;27.908;2023-09-12T01:51:25;18.22;75.99
71039;SHT30;58692;43.212;27.908;2023-09-12T01:53:53;18.25;75.67
71039;SHT30;58692;43.212;27.908;2023-09-12T01:56:20;18.26;75.35
71039;SHT30;58692;43.212;27.908;2023-09-12T01:58:46;18.31;74.92
71039;SHT30;58692;43.212;27.908;2023-09-12T02:01:11;18.24;75.08
71039;SHT30;58692;43.212;27.908;2023-09-12T02:03:37;18.18;75.21
71039;SHT30;58692;43.212;27.908;2023-09-12T02:06:02;18.22;75.20
71039;SHT30;58692;43.212;27.908;2023-09-12T02:08:28;18.18;75.00
71039;SHT30;58692;43.212;27.908;2023-09-12T02:10:54;18.13;75.01
71039;SHT30;58692;43.212;27.908;2023-09-12T02:13:20;18.19;74.81
71039;SHT30;58692;43.212;27.908;2023-09-12T02:15:45;18.24;74.73
71039;SHT30;58692;43.212;27.908;2023-09-12T02:18:11;18.18;74.98
71039;SHT30;58692;43.212;27.908;2023-09-12T02:20:39;18.13;75.08
71039;SHT30;58692;43.212;27.908;2023-09-12T02:23:04;18.12;75.12
71039;SHT30;58692;43.212;27.908;2023-09-12T02:25:30;17.88;75.88
71039;SHT30;58692;43.212;27.908;2023-09-12T02:27:56;17.87;75.86
71039;SHT30;58692;43.212;27.908;2023-09-12T02:30:21;17.92;75.67
71039;SHT30;58692;43.212;27.908;2023-09-12T02:32:47;17.78;76.18
71039;SHT30;58692;43.212;27.908;2023-09-12T02:35:12;17.74;76.47
71039;SHT30;58692;43.212;27.908;2023-09-12T02:37:38;17.90;75.98
71039;SHT30;58692;43.212;27.908;2023-09-12T02:40:03;17.87;76.22
71039;SHT30;58692;43.212;27.908;2023-09-12T02:42:31;17.77;76.98
71039;SHT30;58692;43.212;27.908;2023-09-12T02:44:56;17.88;76.86
71039;SHT30;58692;43.212;27.908;2023-09-12T02:47:22;17.90;76.63
71039;SHT30;58692;43.212;27.908;2023-09-12T02:49:47;17.81;76.93
71039;SHT30;58692;43.212;27.908;2023-09-12T02:52:13;17.73;77.03
71039;SHT30;58692;43.212;27.908;2023-09-12T02:54:38;17.73;77.20
71039;SHT30;58692;43.212;27.908;2023-09-12T02:57:04;17.78;77.12
71039;SHT30;58692;43.212;27.908;2023-09-12T02:59:29;17.74;77.12
71039;SHT30;58692;43.212;27.908;2023-09-12T03:01:56;17.67;77.34
71039;SHT30;58692;43.212;27.908;2023-09-12T03:04:21;17.75;77.40
71039;SHT30;58692;43.212;27.908;2023-09-12T03:06:47;17.77;77.38
71039;SHT30;58692;43.212;27.908;2023-09-12T03:09:13;17.77;77.32
71039;SHT30;58692;43.212;27.908;2023-09-12T03:11:39;17.81;77.05
71039;SHT30;58692;43.212;27.908;2023-09-12T03:14:04;17.82;76.69
71039;SHT30;58692;43.212;27.908;2023-09-12T03:16:30;17.82;76.54
71039;SHT30;58692;43.212;27.908;2023-09-12T03:18:55;17.77;76.79
71039;SHT30;58692;43.212;27.908;2023-09-12T03:21:21;17.80;76.93
71039;SHT30;58692;43.212;27.908;2023-09-12T03:23:46;17.82;77.19
71039;SHT30;58692;43.212;27.908;2023-09-12T03:26:12;17.80;77.70
71039;SHT30;58692;43.212;27.908;2023-09-12T03:28:37;17.85;77.62
71039;SHT30;58692;43.212;27.908;2023-09-12T03:31:06;17.84;77.73
71039;SHT30;58692;43.212;27.908;2023-09-12T03:33:32;17.84;77.68
71039;SHT30;58692;43.212;27.908;2023-09-12T03:35:57;17.82;77.54
71039;SHT30;58692;43.212;27.908;2023-09-12T03:38:23;17.74;77.43
71039;SHT30;58692;43.212;27.908;2023-09-12T03:40:49;17.80;77.31
71039;SHT30;58692;43.212;27.908;2023-09-12T03:43:14;17.77;77.21
71039;SHT30;58692;43.212;27.908;2023-09-12T03:45:39;17.81;77.07
71039;SHT30;58692;43.212;27.908;2023-09-12T03:48:05;17.77;77.04
71039;SHT30;58692;43.212;27.908;2023-09-12T03:50:31;17.81;77.04
71039;SHT30;58692;43.212;27.908;2023-09-12T03:52:56;17.85;76.76
71039;SHT30;58692;43.212;27.908;2023-09-12T03:55:22;17.66;77.25
71039;SHT30;58692;43.212;27.908;2023-09-12T03:57:47;17.73;77.00
71039;SHT30;58692;43.212;27.908;2023-09-12T04:00:13;17.82;76.77
71039;SHT30;58692;43.212;27.908;2023-09-12T04:02:39;17.88;76.49
71039;SHT30;58692;43.212;27.908;2023-09-12T04:05:05;17.88;76.41
71039;SHT30;58692;43.212;27.908;2023-09-12T04:07:30;17.91;76.30
71039;SHT30;58692;43.212;27.908;2023-09-12T04:09:56;18.02;76.02
71039;SHT30;58692;43.212;27.908;2023-09-12T04:12:21;18.13;75.75
71039;SHT30;58692;43.212;27.908;2023-09-12T04:14:49;18.29;75.03
71039;SHT30;58692;43.212;27.908;2023-09-12T04:17:15;18.33;74.67
71039;SHT30;58692;43.212;27.908;2023-09-12T04:19:40;18.43;74.27
71039;SHT30;58692;43.212;27.908;2023-09-12T04:22:06;18.66;73.94
71039;SHT30;58692;43.212;27.908;2023-09-12T04:24:31;18.86;73.58
71039;SHT30;58692;43.212;27.908;2023-09-12T04:26:57;18.89;73.63
71039;SHT30;58692;43.212;27.908;2023-09-12T04:29:22;19.06;72.64
71039;SHT30;58692;43.212;27.908;2023-09-12T04:31:48;19.32;71.62
71039;SHT30;58692;43.212;27.908;2023-09-12T04:34:13;19.43;71.13
71039;SHT30;58692;43.212;27.908;2023-09-12T04:36:39;19.55;70.83
71039;SHT30;58692;43.212;27.908;2023-09-12T04:39:04;19.88;70.24
71039;SHT30;58692;43.212;27.908;2023-09-12T04:41:30;20.20;69.60
71039;SHT30;58692;43.212;27.908;2023-09-12T04:43:56;20.16;69.49
71039;SHT30;58692;43.212;27.908;2023-09-12T04:46:23;20.37;68.93
71039;SHT30;58692;43.212;27.908;2023-09-12T04:48:50;20.64;68.11
71039;SHT30;58692;43.212;27.908;2023-09-12T04:51:15;20.64;68.29
71039;SHT30;58692;43.212;27.908;2023-09-12T04:53:41;20.70;67.90
71039;SHT30;58692;43.212;27.908;2023-09-12T04:56:06;20.95;67.39
71039;SHT30;58692;43.212;27.908;2023-09-12T04:58:34;20.79;67.55
71039;SHT30;58692;43.212;27.908;2023-09-12T05:01:00;20.76;67.89
71039;SHT30;58692;43.212;27.908;2023-09-12T05:03:25;21.15;66.87
71039;SHT30;58692;43.212;27.908;2023-09-12T05:05:51;21.24;66.66
71039;SHT30;58692;43.212;27.908;2023-09-12T05:08:17;21.32;66.47
71039;SHT30;58692;43.212;27.908;2023-09-12T05:10:44;21.49;66.00
71039;SHT30;58692;43.212;27.908;2023-09-12T05:13:10;21.92;65.29
71039;SHT30;58692;43.212;27.908;2023-09-12T05:15:35;22.21;64.30
71039;SHT30;58692;43.212;27.908;2023-09-12T05:18:02;22.33;63.69
71039;SHT30;58692;43.212;27.908;2023-09-12T05:20:27;22.44;63.73
71039;SHT30;58692;43.212;27.908;2023-09-12T05:22:53;22.39;63.54
71039;SHT30;58692;43.212;27.908;2023-09-12T05:25:21;22.70;62.72
71039;SHT30;58692;43.212;27.908;2023-09-12T05:27:46;22.78;62.36
71039;SHT30;58692;43.212;27.908;2023-09-12T05:30:12;23.02;61.86
71039;SHT30;58692;43.212;27.908;2023-09-12T05:32:37;23.25;61.38
71039;SHT30;58692;43.212;27.908;2023-09-12T05:35:04;23.11;61.85
71039;SHT30;58692;43.212;27.908;2023-09-12T05:37:29;23.50;61.08
71039;SHT30;58692;43.212;27.908;2023-09-12T05:39:55;23.69;60.55
71039;SHT30;58692;43.212;27.908;2023-09-12T05:42:20;23.59;60.80
71039;SHT30;58692;43.212;27.908;2023-09-12T05:44:48;23.69;60.53
71039;SHT30;58692;43.212;27.908;2023-09-12T05:47:15;23.89;59.84
71039;SHT30;58692;43.212;27.908;2023-09-12T05:49:41;24.38;59.26
71039;SHT30;58692;43.212;27.908;2023-09-12T05:52:06;24.69;58.15
71039;SHT30;58692;43.212;27.908;2023-09-12T05:54:32;24.96;57.67
71039;SHT30;58692;43.212;27.908;2023-09-12T05:56:58;24.85;57.99
71039;SHT30;58692;43.212;27.908;2023-09-12T05:59:23;25.06;57.63
71039;SHT30;58692;43.212;27.908;2023-09-12T06:01:48;25.16;57.75
71039;SHT30;58692;43.212;27.908;2023-09-12T06:04:14;25.42;57.11
71039;SHT30;58692;43.212;27.908;2023-09-12T06:06:40;25.14;57.45
71039;SHT30;58692;43.212;27.908;2023-09-12T06:09:05;25.66;56.74
71039;SHT30;58692;43.212;27.908;2023-09-12T06:11:31;25.77;56.48
71039;SHT30;58692;43.212;27.908;2023-09-12T06:13:56;25.42;57.01
71039;SHT30;58692;43.212;27.908;2023-09-12T06:16:22;26.05;56.09
71039;SHT30;58692;43.212;27.908;2023-09-12T06:18:48;26.10;56.02
71039;SHT30;58692;43.212;27.908;2023-09-12T06:21:14;26.24;55.87
71039;SHT30;58692;43.212;27.908;2023-09-12T06:23:40;26.71;55.14
71039;SHT30;58692;43.212;27.908;2023-09-12T06:26:06;27.13;54.03
71039;SHT30;58692;43.212;27.908;2023-09-12T06:28:32;26.83;54.26
71039;SHT30;58692;43.212;27.908;2023-09-12T06:30:58;26.67;55.18
71039;SHT30;58692;43.212;27.908;2023-09-12T06:33:25;27.12;54.24
71039;SHT30;58692;43.212;27.908;2023-09-12T06:35:51;27.78;53.36
71039;SHT30;58692;43.212;27.908;2023-09-12T06:38:18;28.00;52.52
71039;SHT30;58692;43.212;27.908;2023-09-12T06:40:44;27.88;52.97
71039;SHT30;58692;43.212;27.908;2023-09-12T06:43:10;28.31;51.90
71039;SHT30;58692;43.212;27.908;2023-09-12T06:45:35;27.90;52.70
71039;SHT30;58692;43.212;27.908;2023-09-12T06:48:03;28.29;51.73
71039;SHT30;58692;43.212;27.908;2023-09-12T06:50:29;28.53;51.68
71039;SHT30;58692;43.212;27.908;2023-09-12T06:52:55;28.86;50.92
71039;SHT30;58692;43.212;27.908;2023-09-12T06:55:20;29.03;50.55
71039;SHT30;58692;43.212;27.908;2023-09-12T06:57:46;28.95;50.54
71039;SHT30;58692;43.212;27.908;2023-09-12T07:00:12;28.63;51.02
71039;SHT30;58692;43.212;27.908;2023-09-12T07:02:38;28.83;50.95
71039;SHT30;58692;43.212;27.908;2023-09-12T07:05:04;29.06;50.48
71039;SHT30;58692;43.212;27.908;2023-09-12T07:07:30;29.61;49.60
71039;SHT30;58692;43.212;27.908;2023-09-12T07:09:56;29.85;48.99
71039;SHT30;58692;43.212;27.908;2023-09-12T07:12:22;29.80;49.07
71039;SHT30;58692;43.212;27.908;2023-09-12T07:14:47;30.21;47.36
71039;SHT30;58692;43.212;27.908;2023-09-12T07:17:14;29.57;48.15
71039;SHT30;58692;43.212;27.908;2023-09-12T07:19:39;28.49;50.24
71039;SHT30;58692;43.212;27.908;2023-09-12T07:22:05;28.25;50.82
71039;SHT30;58692;43.212;27.908;2023-09-12T07:24:30;28.39;50.51
71039;SHT30;58692;43.212;27.908;2023-09-12T07:26:56;27.51;52.60
71039;SHT30;58692;43.212;27.908;2023-09-12T07:29:23;27.93;51.90
71039;SHT30;58692;43.212;27.908;2023-09-12T07:31:52;27.80;52.43
71039;SHT30;58692;43.212;27.908;2023-09-12T07:34:19;27.94;51.94
71039;SHT30;58692;43.212;27.908;2023-09-12T07:36:44;27.71;52.41
71039;SHT30;58692;43.212;27.908;2023-09-12T07:39:09;28.83;50.27
71039;SHT30;58692;43.212;27.908;2023-09-12T07:41:36;28.99;49.74
71039;SHT30;58692;43.212;27.908;2023-09-12T07:44:01;28.63;50.14
71039;SHT30;58692;43.212;27.908;2023-09-12T07:46:30;28.95;49.91
71039;SHT30;58692;43.212;27.908;2023-09-12T07:48:56;28.93;49.74
71039;SHT30;58692;43.212;27.908;2023-09-12T07:51:22;28.65;50.35
71039;SHT30;58692;43.212;27.908;2023-09-12T07:53:48;28.46;51.08
71039;SHT30;58692;43.212;27.908;2023-09-12T07:56:14;28.66;50.85
71039;SHT30;58692;43.212;27.908;2023-09-12T07:58:39;28.34;50.36
71039;SHT30;58692;43.212;27.908;2023-09-12T08:01:07;28.60;50.43
71039;SHT30;58692;43.212;27.908;2023-09-12T08:03:34;28.89;50.02
71039;SHT30;58692;43.212;27.908;2023-09-12T08:06:04;29.37;49.37
71039;SHT30;58692;43.212;27.908;2023-09-12T08:08:38;29.09;50.21
71039;SHT30;58692;43.212;27.908;2023-09-12T08:11:03;28.53;50.56
71039;SHT30;58692;43.212;27.908;2023-09-12T08:13:30;28.28;51.24
71039;SHT30;58692;43.212;27.908;2023-09-12T08:15:57;28.05;51.75
71039;SHT30;58692;43.212;27.908;2023-09-12T08:18:29;28.42;52.60
71039;SHT30;58692;43.212;27.908;2023-09-12T08:20:59;28.48;51.59
71039;SHT30;58692;43.212;27.908;2023-09-12T08:23:24;28.44;52.27
71039;SHT30;58692;43.212;27.908;2023-09-12T08:25:50;28.14;53.01
71039;SHT30;58692;43.212;27.908;2023-09-12T08:28:16;28.60;51.85
71039;SHT30;58692;43.212;27.908;2023-09-12T08:30:44;28.73;51.87
71039;SHT30;58692;43.212;27.908;2023-09-12T08:33:11;29.67;50.37
71039;SHT30;58692;43.212;27.908;2023-09-12T08:35:36;29.65;50.63
71039;SHT30;58692;43.212;27.908;2023-09-12T08:38:02;28.97;51.77
71039;SHT30;58692;43.212;27.908;2023-09-12T08:40:28;29.23;51.73
71039;SHT30;58692;43.212;27.908;2023-09-12T08:42:57;28.66;52.51
71039;SHT30;58692;43.212;27.908;2023-09-12T08:45:23;27.93;54.58
71039;SHT30;58692;43.212;27.908;2023-09-12T08:47:51;28.15;54.58
71039;SHT30;58692;43.212;27.908;2023-09-12T08:50:17;27.98;54.42
71039;SHT30;58692;43.212;27.908;2023-09-12T08:52:45;27.54;55.03
71039;SHT30;58692;43.212;27.908;2023-09-12T08:55:11;28.51;53.23
71039;SHT30;58692;43.212;27.908;2023-09-12T08:57:39;27.95;55.07
71039;SHT30;58692;43.212;27.908;2023-09-12T09:00:06;27.65;54.74
71039;SHT30;58692;43.212;27.908;2023-09-12T09:02:35;27.46;55.90
71039;SHT30;58692;43.212;27.908;2023-09-12T09:05:02;28.15;54.76
71039;SHT30;58692;43.212;27.908;2023-09-12T09:07:32;27.98;55.01
71039;SHT30;58692;43.212;27.908;2023-09-12T09:10:02;28.18;54.60
71039;SHT30;58692;43.212;27.908;2023-09-12T09:12:29;27.64;54.23
71039;SHT30;58692;43.212;27.908;2023-09-12T09:14:55;28.08;52.74
71039;SHT30;58692;43.212;27.908;2023-09-12T09:17:20;28.29;53.50
71039;SHT30;58692;43.212;27.908;2023-09-12T09:19:46;28.63;53.53
71039;SHT30;58692;43.212;27.908;2023-09-12T09:22:11;29.20;52.87
71039;SHT30;58692;43.212;27.908;2023-09-12T09:24:37;28.95;52.83
71039;SHT30;58692;43.212;27.908;2023-09-12T09:27:03;28.19;53.67
71039;SHT30;58692;43.212;27.908;2023-09-12T09:29:29;28.02;53.28
71039;SHT30;58692;43.212;27.908;2023-09-12T09:31:58;28.02;53.34
71039;SHT30;58692;43.212;27.908;2023-09-12T09:34:25;27.84;53.88
71039;SHT30;58692;43.212;27.908;2023-09-12T09:36:54;28.79;52.30
71039;SHT30;58692;43.212;27.908;2023-09-12T09:39:23;28.95;50.82
71039;SHT30;58692;43.212;27.908;2023-09-12T09:41:52;28.92;50.79
71039;SHT30;58692;43.212;27.908;2023-09-12T09:44:18;29.24;50.53
71039;SHT30;58692;43.212;27.908;2023-09-12T09:46:45;29.64;49.67
71039;SHT30;58692;43.212;27.908;2023-09-12T09:49:11;29.97;49.75
71039;SHT30;58692;43.212;27.908;2023-09-12T09:51:41;29.88;49.54
71039;SHT30;58692;43.212;27.908;2023-09-12T09:54:08;29.58;49.51
71039;SHT30;58692;43.212;27.908;2023-09-12T09:56:48;30.18;48.27
71039;SHT30;58692;43.212;27.908;2023-09-12T09:59:17;29.61;47.82
71039;SHT30;58692;43.212;27.908;2023-09-12T10:01:45;29.07;49.89
71039;SHT30;58692;43.212;27.908;2023-09-12T10:04:13;28.72;50.91
71039;SHT30;58692;43.212;27.908;2023-09-12T10:06:45;29.81;48.21
71039;SHT30;58692;43.212;27.908;2023-09-12T10:09:12;29.02;48.94
71039;SHT30;58692;43.212;27.908;2023-09-12T10:11:41;29.06;49.14
71039;SHT30;58692;43.212;27.908;2023-09-12T10:14:07;29.82;48.22
71039;SHT30;58692;43.212;27.908;2023-09-12T10:16:35;29.09;48.56
71039;SHT30;58692;43.212;27.908;2023-09-12T10:19:25;28.99;48.69
71039;SHT30;58692;43.212;27.908;2023-09-12T10:24:49;28.25;50.09
71039;SHT30;58692;43.212;27.908;2023-09-12T10:27:18;28.73;49.32
71039;SHT30;58692;43.212;27.908;2023-09-12T10:29:44;28.59;49.12
71039;SHT30;58692;43.212;27.908;2023-09-12T10:32:14;28.66;48.78
71039;SHT30;58692;43.212;27.908;2023-09-12T10:34:41;28.32;49.45
71039;SHT30;58692;43.212;27.908;2023-09-12T10:37:12;28.56;48.95
71039;SHT30;58692;43.212;27.908;2023-09-12T10:39:42;27.68;49.93
71039;SHT30;58692;43.212;27.908;2023-09-12T10:42:08;27.87;50.53
71039;SHT30;58692;43.212;27.908;2023-09-12T10:44:35;28.51;49.49
71039;SHT30;58692;43.212;27.908;2023-09-12T10:47:01;28.42;49.22
71039;SHT30;58692;43.212;27.908;2023-09-12T10:49:28;28.36;49.27
71039;SHT30;58692;43.212;27.908;2023-09-12T10:51:54;29.10;47.85
71039;SHT30;58692;43.212;27.908;2023-09-12T10:54:26;28.73;48.36
71039;SHT30;58692;43.212;27.908;2023-09-12T10:57:04;28.53;48.43
71039;SHT30;58692;43.212;27.908;2023-09-12T10:59:30;28.86;47.82
71039;SHT30;58692;43.212;27.908;2023-09-12T11:04:58;29.02;47.76
71039;SHT30;58692;43.212;27.908;2023-09-12T11:10:17;29.13;47.14
71039;SHT30;58692;43.212;27.908;2023-09-12T11:12:47;29.17;47.40
71039;SHT30;58692;43.212;27.908;2023-09-12T11:15:14;29.30;46.68
71039;SHT30;58692;43.212;27.908;2023-09-12T11:17:42;29.80;46.22
71039;SHT30;58692;43.212;27.908;2023-09-12T11:20:09;30.35;45.12
71039;SHT30;58692;43.212;27.908;2023-09-12T11:22:38;30.21;45.59
71039;SHT30;58692;43.212;27.908;2023-09-12T11:27:45;30.21;45.43
71039;SHT30;58692;43.212;27.908;2023-09-12T11:30:26;28.38;48.40
71039;SHT30;58692;43.212;27.908;2023-09-12T11:32:56;28.48;48.13
71039;SHT30;58692;43.212;27.908;2023-09-12T11:35:25;28.86;47.76
71039;SHT30;58692;43.212;27.908;2023-09-12T11:37:53;28.78;47.66
71039;SHT30;58692;43.212;27.908;2023-09-12T11:40:27;29.00;47.50
71039;SHT30;58692;43.212;27.908;2023-09-12T11:43:06;28.93;47.27
71039;SHT30;58692;43.212;27.908;2023-09-12T11:45:33;28.62;47.60
71039;SHT30;58692;43.212;27.908;2023-09-12T11:47:59;28.18;48.68
71039;SHT30;58692;43.212;27.908;2023-09-12T11:55:25;28.76;47.96
71039;SHT30;58692;43.212;27.908;2023-09-12T11:57:51;29.11;47.05
71039;SHT30;58692;43.212;27.908;2023-09-12T12:00:17;28.97;47.24
71039;SHT30;58692;43.212;27.908;2023-09-12T12:02:45;28.80;47.77
71039;SHT30;58692;43.212;27.908;2023-09-12T12:05:12;28.22;48.72
71039;SHT30;58692;43.212;27.908;2023-09-12T12:07:38;28.31;48.87
71039;SHT30;58692;43.212;27.908;2023-09-12T12:10:04;28.63;48.29
71039;SHT30;58692;43.212;27.908;2023-09-12T12:12:31;28.63;48.29
71039;SHT30;58692;43.212;27.908;2023-09-12T12:14:56;28.90;47.60
71039;SHT30;58692;43.212;27.908;2023-09-12T12:17:22;28.19;49.05
71039;SHT30;58692;43.212;27.908;2023-09-12T12:19:47;27.84;49.73
71039;SHT30;58692;43.212;27.908;2023-09-12T12:22:13;28.05;49.75
71039;SHT30;58692;43.212;27.908;2023-09-12T12:24:41;27.88;50.23
71039;SHT30;58692;43.212;27.908;2023-09-12T12:27:07;27.81;50.28
71039;SHT30;58692;43.212;27.908;2023-09-12T12:29:36;27.68;50.67
71039;SHT30;58692;43.212;27.908;2023-09-12T12:32:04;27.50;50.79
71039;SHT30;58692;43.212;27.908;2023-09-12T12:34:30;27.67;50.43
71039;SHT30;58692;43.212;27.908;2023-09-12T12:36:56;27.26;51.97
71039;SHT30;58692;43.212;27.908;2023-09-12T12:39:23;27.27;51.88
71039;SHT30;58692;43.212;27.908;2023-09-12T12:41:51;26.76;52.76
71039;SHT30;58692;43.212;27.908;2023-09-12T12:44:17;26.21;53.95
71039;SHT30;58692;43.212;27.908;2023-09-12T12:46:52;26.05;54.44
71039;SHT30;58692;43.212;27.908;2023-09-12T12:49:19;25.96;54.64
71039;SHT30;58692;43.212;27.908;2023-09-12T12:51:46;25.43;55.86
71039;SHT30;58692;43.212;27.908;2023-09-12T12:54:12;25.37;55.56
71039;SHT30;58692;43.212;27.908;2023-09-12T12:56:38;24.82;56.65
71039;SHT30;58692;43.212;27.908;2023-09-12T12:59:06;25.08;56.94
71039;SHT30;58692;43.212;27.908;2023-09-12T13:01:35;25.14;56.54
71039;SHT30;58692;43.212;27.908;2023-09-12T13:04:01;25.12;56.62
71039;SHT30;58692;43.212;27.908;2023-09-12T13:06:26;25.18;56.63
71039;SHT30;58692;43.212;27.908;2023-09-12T13:08:55;25.27;56.23
71039;SHT30;58692;43.212;27.908;2023-09-12T13:11:22;25.19;56.58
71039;SHT30;58692;43.212;27.908;2023-09-12T13:13:49;25.11;56.51
71039;SHT30;58692;43.212;27.908;2023-09-12T13:16:15;24.76;57.10
71039;SHT30;58692;43.212;27.908;2023-09-12T13:18:41;24.65;57.11
71039;SHT30;58692;43.212;27.908;2023-09-12T13:21:07;24.75;56.64
71039;SHT30;58692;43.212;27.908;2023-09-12T13:23:35;24.65;56.85
71039;SHT30;58692;43.212;27.908;2023-09-12T13:26:01;24.78;56.94
71039;SHT30;58692;43.212;27.908;2023-09-12T13:28:29;24.74;56.71
71039;SHT30;58692;43.212;27.908;2023-09-12T13:30:55;24.48;57.89
71039;SHT30;58692;43.212;27.908;2023-09-12T13:33:21;24.44;58.66
71039;SHT30;58692;43.212;27.908;2023-09-12T13:35:48;24.33;58.74
71039;SHT30;58692;43.212;27.908;2023-09-12T13:38:14;24.37;57.58
71039;SHT30;58692;43.212;27.908;2023-09-12T13:40:43;24.38;58.15
71039;SHT30;58692;43.212;27.908;2023-09-12T13:43:09;24.45;58.44
71039;SHT30;58692;43.212;27.908;2023-09-12T13:45:35;24.75;58.26
71039;SHT30;58692;43.212;27.908;2023-09-12T13:48:02;24.85;58.70
71039;SHT30;58692;43.212;27.908;2023-09-12T13:50:29;24.67;58.48
71039;SHT30;58692;43.212;27.908;2023-09-12T13:52:59;24.43;58.53
71039;SHT30;58692;43.212;27.908;2023-09-12T13:55:25;24.20;59.23
71039;SHT30;58692;43.212;27.908;2023-09-12T13:57:51;24.38;58.95
71039;SHT30;58692;43.212;27.908;2023-09-12T14:00:16;24.28;58.94
71039;SHT30;58692;43.212;27.908;2023-09-12T14:02:42;24.31;58.69
71039;SHT30;58692;43.212;27.908;2023-09-12T14:05:12;24.37;59.14
71039;SHT30;58692;43.212;27.908;2023-09-12T14:07:37;24.54;58.62
71039;SHT30;58692;43.212;27.908;2023-09-12T14:10:06;24.43;58.25
71039;SHT30;58692;43.212;27.908;2023-09-12T14:12:31;24.30;58.27
71039;SHT30;58692;43.212;27.908;2023-09-12T14:14:57;24.50;58.11
71039;SHT30;58692;43.212;27.908;2023-09-12T14:17:23;24.45;58.19
71039;SHT30;58692;43.212;27.908;2023-09-12T14:19:49;24.67;57.74
71039;SHT30;58692;43.212;27.908;2023-09-12T14:22:15;24.76;57.88
71039;SHT30;58692;43.212;27.908;2023-09-12T14:24:40;24.35;58.95
71039;SHT30;58692;43.212;27.908;2023-09-12T14:27:06;23.96;59.84
71039;SHT30;58692;43.212;27.908;2023-09-12T14:29:32;24.14;59.84
71039;SHT30;58692;43.212;27.908;2023-09-12T14:31:57;24.31;59.50
71039;SHT30;58692;43.212;27.908;2023-09-12T14:34:26;24.35;59.27
71039;SHT30;58692;43.212;27.908;2023-09-12T14:36:54;24.40;58.54
71039;SHT30;58692;43.212;27.908;2023-09-12T14:39:20;24.33;58.91
71039;SHT30;58692;43.212;27.908;2023-09-12T14:41:46;24.41;59.70
71039;SHT30;58692;43.212;27.908;2023-09-12T14:44:17;24.51;60.04
71039;SHT30;58692;43.212;27.908;2023-09-12T14:46:43;24.43;60.22
71039;SHT30;58692;43.212;27.908;2023-09-12T14:49:09;24.20;59.96
71039;SHT30;58692;43.212;27.908;2023-09-12T14:51:36;24.02;60.86
71039;SHT30;58692;43.212;27.908;2023-09-12T14:54:02;24.00;61.22
71039;SHT30;58692;43.212;27.908;2023-09-12T14:56:28;23.89;61.17
71039;SHT30;58692;43.212;27.908;2023-09-12T14:58:54;24.00;60.91
71039;SHT30;58692;43.212;27.908;2023-09-12T15:01:20;24.07;61.12
71039;SHT30;58692;43.212;27.908;2023-09-12T15:03:45;24.06;61.32
71039;SHT30;58692;43.212;27.908;2023-09-12T15:06:11;24.06;61.79
71039;SHT30;58692;43.212;27.908;2023-09-12T15:08:36;23.99;61.62
71039;SHT30;58692;43.212;27.908;2023-09-12T15:11:02;24.18;61.18
71039;SHT30;58692;43.212;27.908;2023-09-12T15:13:28;24.00;61.58
71039;SHT30;58692;43.212;27.908;2023-09-12T15:15:54;24.00;61.16
71039;SHT30;58692;43.212;27.908;2023-09-12T15:18:19;24.04;60.96
71039;SHT30;58692;43.212;27.908;2023-09-12T15:20:45;23.92;61.49
71039;SHT30;58692;43.212;27.908;2023-09-12T15:23:10;23.94;61.47
71039;SHT30;58692;43.212;27.908;2023-09-12T15:25:36;23.84;61.88
71039;SHT30;58692;43.212;27.908;2023-09-12T15:28:02;23.89;61.94
71039;SHT30;58692;43.212;27.908;2023-09-12T15:30:28;23.80;62.30
71039;SHT30;58692;43.212;27.908;2023-09-12T15:32:53;23.79;61.73